VIP Ground Handling & Aviation Services

 

 
Airport

CORFU (CFU)

Ground Handling Services – CFU/LGKR

VIP Ground Handling

State Ground Handling

Military Ground Handling

Slot & PPR Coordination

Fuel Arrangements

Crew Accommodation Arrangements

Crew Transportation

Customs & Immigration Assistance

Executive Terminal Services

Crew Lounge

Flight Planning, Weather Briefing and NOTAMs

Catering Arrangements

Security Services

Aircraft Maintenance

Airport Customs & Immigration

Concierge Services

VIP Meet & Greet

Helicopter Transfers

Chauffeur Services

Aircraft Charter

Yacht Charter

Hire & Rental

Entertainment & Hospitality

Health & Beauty

Delivery Services

Conference & Meeting rooms

Corfu International Airport ``Ioannis Kapodistrias``, Corfu 491 00

+30 210 35 33 331 (24/7)

+30 694 6200 300 (24/7)

greece@alphajetservices.com

Corfu Airport
Airport Type
•Civil
Operating Hours
•24H
Fuel Available
•JET A1 / AVGAS
Fire Category
•7
Approaches
•VOR / DME NDB
Available data for LGKR from the past 2 hours
IOANNIS KAPODIST
Metar
LGKR 260950Z 19002KT CAVOK 36/18 Q1013 NOSIG

09:50 UTC

Wind: 190° 2kt

Visibility:

Sky:

Temp: 36 deg C / 96.8 deg F

Dewpoint: 18 deg C / 64.4 deg F

Pressure: 1013 hPa

TAF
TAF LGKR 260500Z 2606/2706 VRB05KT 9999 FEW030 BECMG 2609/2611 28010KT BECMG 2618/2620 VRB05KT